Polarstern — DBLK — position and weather

sailwx.info

Track history (hours):
 
Tides and Currents Weather Stations Pressure Air Temp Water Temp Dewpoint Dewpoint Depression Visibility Wind Speed Wind Dir Waves Ship Positions

Oceanographic research ship Polarstern (Germany)

Detailed information on ship capabilities available from University of Delaware's Ocean Information Center and ARCUS's ALIAS (Arctic Logistics Information and Support) project.

Last reported at 2016-Jul-29 07:00 UTC. Time now 2016-Jul-29 07:47 UTC.
Position N 79°30' E 000°06'.

Length 117.9 m; beam 25 m; draft 10.7 m.

MMSI: 211202460.

Wind from 320 at 16 knots

Barometer 1020.5 mb
Air temperature -0.5 ° C
Dewpoint -0.5 ° C
Water temperature -0.6 ° C

Date/timePositionNaut miles runAvg speedWind from/ knotsBaromVisibWave heightAir tempDewpointWater temp
2016-Jul-29 07:00N 79°30' E 000°06'0 0.0 320 / 161020.5 -0.5-0.5-0.6
2016-Jul-29 06:00N 79°30' E 000°06'0 0.0 310 / 161020.5 0.1 -0.4-0.4 0.6
2016-Jul-29 04:00N 79°30' E 000°06'0 0.0 330 / 171020.9 -0.6-0.6 3.4
2016-Jul-29 03:00N 79°30' E 000°06'0 0.0 330 / 191020.8 -0.1-0.2 3.9
2016-Jul-29 02:00N 79°30' E 000°06'0 0.0 310 / 161020.9 0.1-0.3 3.1
2016-Jul-29 01:00N 79°30' E 000°06'0 0.0 320 / 141021.1 0.1-0.4 3.4
2016-Jul-29 00:00N 79°30' E 000°06'1 1.1 320 / 141021.2 0.2-0.3 3.1
2016-Jul-28 23:00N 79°30' E 000°00'0 0.0 330 / 121020.9 0.1-0.4 3.4
2016-Jul-28 22:00N 79°30' E 000°00'0 0.0 340 / 141020.9 0.1-0.2 3.6
2016-Jul-28 21:00N 79°30' E 000°00'6 6.4 340 / 141020.5 0.1-0.1 1.9
2016-Jul-28 20:00N 79°24' E 000°12'1212.5 340 / 161019.8 0.2-0.2 1.9
2016-Jul-28 19:00N 79°12' E 000°30'1212.5 340 / 161019.5 -1.0-1.0 1.6
2016-Jul-28 18:00N 79°00' E 000°48'1212.5 340 / 161018.510.8 0.5-0.3-0.9 3.8
2016-Jul-28 17:00N 78°48' E 001°06'0 0.0 360 / 101018.5 0.6-0.3 3.6
2016-Jul-28 16:00N 78°48' E 001°06'0 0.0 340 / 81018.8 0.1-0.0 4.3
2016-Jul-28 15:00N 78°48' E 001°06'0 0.0 300 / 61018.9 2.2 0.5 0.5-0.1 4.0
2016-Jul-28 14:00N 78°48' E 001°06'0 0.0 270 / 101018.5 1.6 0.5 3.7
2016-Jul-28 13:00N 78°48' E 001°06'0 0.0 250 / 121018.4 1.7 1.0 3.7
2016-Jul-28 12:00N 78°48' E 001°06'0 0.0 260 / 121018.6 2.2 0.5 1.6 1.6 3.4
2016-Jul-28 11:00N 78°48' E 001°06'0 0.0 260 / 141018.7 2.5 1.7 4.8
2016-Jul-28 10:00N 78°48' E 001°06'0 0.0 220 / 191018.4 3.3 2.2 3.5
2016-Jul-28 09:00N 78°48' E 001°06'0 0.0 240 / 121018.2 2.2 0.5 2.7 2.6 3.5
2016-Jul-28 08:00N 78°48' E 001°06'0 0.0 220 / 191018.1 3.6 2.8 3.5
2016-Jul-28 07:00N 78°48' E 001°06'0 0.0 220 / 211017.6 3.8 3.1 3.6
2016-Jul-28 06:00N 78°48' E 001°06'1312.9 220 / 231017.6 5.4 1.5 3.8 2.9 4.5
2016-Jul-28 05:00N 79°00' E 000°42'8 7.5 230 / 211017.7 3.1 2.8 4.4
2016-Jul-28 04:00N 79°06' E 000°18'7 6.9 220 / 191017.5 2.6 2.3 1.9
2016-Jul-28 03:00N 79°12' E 000°00'0 0.0 210 / 211017.9 2.3 2.2 0.7
2016-Jul-28 02:00N 79°12' E 000°00'0 0.0 200 / 231018.2 2.6 2.2 2.2
2016-Jul-28 01:00N 79°12' E 000°00'1212.5 200 / 211018.1 2.7 2.1 0.9
2016-Jul-28 00:00N 79°00' W 000°18'8 7.6 200 / 231018.7 3.0 2.6 1.7
2016-Jul-27 23:00N 78°54' W 000°42'6 6.4 190 / 231019.1 3.3 2.7 2.7
2016-Jul-27 22:00N 78°48' W 000°54'0 0.0 190 / 231019.0 3.3 2.4 3.4
2016-Jul-27 21:00N 78°48' W 000°54'0 0.0 200 / 231019.1 3.4 2.2 3.7
2016-Jul-27 20:00N 78°48' W 000°54'0 0.0 200 / 231019.0 3.6 2.1 3.5
2016-Jul-27 19:00N 78°48' W 000°54'1 1.2 200 / 251019.1 3.7 2.2 3.4
2016-Jul-27 18:00N 78°48' W 000°48'0 0.0 200 / 231019.410.8 0.5 3.2 1.6 3.3
2016-Jul-27 17:00N 78°48' W 000°48'6 6.0 200 / 191020.0 3.4 2.3 3.5
2016-Jul-27 16:00N 78°54' W 000°48'0 0.0 200 / 211020.0 3.8 2.5 3.8
2016-Jul-27 15:00N 78°54' W 000°48'1111.1 200 / 231020.210.8 0.5 3.8 2.4 3.7
2016-Jul-27 14:00N 78°48' E 000°00'0 0.0 200 / 231020.3 4.9 2.9 2.6
2016-Jul-27 13:00N 78°48' E 000°00'0 0.0 210 / 211021.0 4.7 2.9 3.0
2016-Jul-27 12:00N 78°48' E 000°00'0 0.0 210 / 211021.210.8 1.5 4.6 2.8 2.8
2016-Jul-27 11:00N 78°48' E 000°00'0 0.0 210 / 211021.4 4.5 3.0 2.5
2016-Jul-27 10:00N 78°48' E 000°00'0 0.0 210 / 211021.8 4.7 2.9 3.1
2016-Jul-27 09:00N 78°48' E 000°00'0 0.0 210 / 191021.810.8 1.5 4.6 2.7 3.4
2016-Jul-27 08:00N 78°48' E 000°00'9 9.3 210 / 211021.8 4.5 2.2 0.7
2016-Jul-27 07:00N 78°48' E 000°48'1211.7 220 / 231021.7 4.9 2.6 4.6
2016-Jul-27 06:00N 78°48' E 001°48'5 4.7 220 / 211022.310.8 1.0 4.6 2.9 5.1
2016-Jul-27 05:00N 78°48' E 002°12'0 0.0 230 / 211022.9 4.8 3.2 7.5
2016-Jul-27 04:00N 78°48' E 002°12'0 0.0 230 / 191023.0 4.6 2.9 7.6
2016-Jul-27 03:00N 78°48' E 002°12'9 9.3 230 / 171023.4 4.6 3.6 7.6
2016-Jul-27 02:00N 78°48' E 003°00'6 5.8 230 / 191023.2 5.2 3.8 7.7
2016-Jul-27 01:00N 78°48' E 003°30'0 0.0 220 / 161023.9 5.1 3.8 7.8
2016-Jul-27 00:00N 78°48' E 003°30'0 0.0 230 / 161024.2 4.8 3.5 7.8
2016-Jul-26 23:00N 78°48' E 003°30'0 0.0 230 / 161024.2 5.1 3.6 7.8
2016-Jul-26 22:00N 78°48' E 003°30'0 0.0 230 / 161024.2 5.1 3.0 7.9
2016-Jul-26 21:00N 78°48' E 003°30'0 0.0 240 / 141023.9 4.8 3.5 7.9
2016-Jul-26 20:00N 78°48' E 003°30'0 0.0 230 / 141023.9 4.9 3.4 7.9
2016-Jul-26 19:00N 78°48' E 003°30'0 0.0 220 / 141023.8 4.8 3.4 7.9
2016-Jul-26 18:00N 78°48' E 003°30'0 0.0 240 / 141023.7 5.4 0.5 4.9 3.1 7.9
2016-Jul-26 17:00N 78°48' E 003°30'0 0.0 230 / 141023.8 4.5 2.7 7.9
2016-Jul-26 16:00N 78°48' E 003°30'1 1.2 240 / 141023.8 4.7 2.7 7.9
2016-Jul-26 15:00N 78°48' E 003°36'9 9.3 240 / 141023.610.8 1.0 4.6 2.9 7.9
2016-Jul-26 14:00N 78°48' E 004°24'8 8.2 240 / 141023.8 5.1 3.2 5.0
2016-Jul-26 13:00N 78°48' E 005°06'1 1.2 240 / 121024.1 4.9 3.5 7.7
2016-Jul-26 12:00N 78°48' E 005°00'0 0.0 230 / 121024.210.8 0.5 4.7 3.3 7.5
2016-Jul-26 11:00N 78°48' E 005°00'0 0.0 240 / 121024.1 4.0 3.4 7.6
2016-Jul-26 10:00N 78°48' E 005°00'0 0.0 230 / 121023.7 4.2 3.5 7.8
2016-Jul-26 09:00N 78°48' E 005°00'0 0.0 220 / 121023.710.8 0.5 4.7 3.2 7.8
2016-Jul-26 08:00N 78°48' E 005°00'0 0.0 240 / 101023.3 4.8 4.1 7.4
2016-Jul-26 07:00N 78°48' E 005°00'0 0.0 250 / 101023.2 4.7 4.0 7.4
2016-Jul-26 06:00N 78°48' E 005°00'8 8.2 250 / 121023.010.8 0.5 4.9 3.7 7.9
2016-Jul-26 05:00N 78°48' E 004°18'0 0.0 250 / 121023.0 4.9 3.5 4.7
2016-Jul-26 04:00N 78°48' E 004°18'0 0.0 240 / 121023.0 5.2 3.8 7.0
2016-Jul-26 03:00N 78°48' E 004°18'1 1.2 250 / 121023.1 6.0 4.4 6.6
2016-Jul-26 02:00N 78°48' E 004°24'1212.0 250 / 101023.0 5.9 4.5 4.3
2016-Jul-26 01:00N 78°54' E 005°18'0 0.0 270 / 101022.9 6.0 3.3 8.5
2016-Jul-26 00:00N 78°54' E 005°18'0 0.0 280 / 121023.1 6.2 3.2 8.5
2016-Jul-25 23:00N 78°54' E 005°18'2 2.3 280 / 141022.8 6.3 2.7 8.5
2016-Jul-25 22:00N 78°54' E 005°06'6 6.1 280 / 121022.9 6.3 3.6 8.3
2016-Jul-25 21:00N 78°48' E 005°00'0 0.0 280 / 101022.8 6.0 3.8 7.3
2016-Jul-25 20:00N 78°48' E 005°00'0 0.0 280 / 121022.7 6.0 4.1 7.3
2016-Jul-25 19:00N 78°48' E 005°00'0 0.0 280 / 121022.3 6.0 3.6 7.4
2016-Jul-25 18:00N 78°48' E 005°00'0 0.0 290 / 101022.427.0 0.5 5.9 3.4 7.5
2016-Jul-25 17:00N 78°48' E 005°00'3 3.5 300 / 121022.3 5.8 3.0 7.4
2016-Jul-25 16:00N 78°48' E 004°42'0 0.0 300 / 121022.1 5.6 3.0 6.0
2016-Jul-25 15:00N 78°48' E 004°42'6 5.8 310 / 121022.327.0 0.5 5.1 3.2 5.6
2016-Jul-25 14:00N 78°48' E 005°12'7 7.0 310 / 171021.7 5.8 2.5 7.8
2016-Jul-25 13:00N 78°42' E 005°30'0 0.0 310 / 161021.8 5.8 3.9 8.0
2016-Jul-25 12:00N 78°42' E 005°30'6 6.4 310 / 161021.627.0 1.0 5.3 3.8 8.0
2016-Jul-25 11:00N 78°48' E 005°42'3 3.5 310 / 161021.3 5.8 4.1 8.1
2016-Jul-25 10:00N 78°48' E 006°00'0 0.0 310 / 141021.2 5.7 2.9 8.0
2016-Jul-25 09:00N 78°48' E 006°00'3 3.5 320 / 141020.927.0 0.5 5.7 3.3 8.1
2016-Jul-25 08:00N 78°48' E 006°18'8 8.2 320 / 161020.6 5.3 3.4 8.5
2016-Jul-25 07:00N 78°48' E 007°00'1 1.2 320 / 161020.0 4.8 2.9 8.1
2016-Jul-25 06:00N 78°48' E 007°06'1212.1 330 / 141019.927.0 0.5 4.4 3.1 8.2
2016-Jul-25 05:00N 79°00' E 007°00'0 0.0 330 / 141019.7 4.1 2.9 8.8
2016-Jul-25 04:00N 79°00' E 007°00'0 0.0 330 / 141019.4 3.2 2.3 8.8
2016-Jul-25 03:00N 79°00' E 007°00'0 0.0 340 / 161019.3 3.1 2.7 8.9
2016-Jul-25 02:00N 79°00' E 007°00'0 0.0 340 / 171019.1 3.4 2.1 8.9
2016-Jul-25 01:00N 79°00' E 007°00'0 0.0 340 / 171018.8 2.8 2.1 8.9
2016-Jul-25 00:00N 79°00' E 007°00'0 0.0 350 / 211018.4 3.9 2.1 8.8
2016-Jul-24 23:00N 79°00' E 007°00'0 0.0 360 / 231018.1 4.2 2.6 8.8
2016-Jul-24 22:00N 79°00' E 007°00'0 0.0 350 / 231017.8 3.7 2.6 8.8
2016-Jul-24 21:00N 79°00' E 007°00'0 0.0 350 / 271017.1 4.4 3.3 8.8
2016-Jul-24 20:00N 79°00' E 007°00'0 0.0 360 / 271016.5 4.6 3.7 8.8
2016-Jul-24 19:00N 79°00' E 007°00'8 8.0 350 / 251015.8 4.6 4.4 8.8
2016-Jul-24 18:00N 79°00' E 007°42'9 9.2 350 / 191014.7 5.4 1.0 6.1 5.8 8.9
2016-Jul-24 17:00N 79°00' E 008°30'0 0.0 360 / 121014.3 6.2 5.3 8.0
2016-Jul-24 16:00N 79°00' E 008°30'7 6.9 350 / 61014.0 6.0 5.4 8.3
2016-Jul-24 15:00N 78°54' E 008°12'6 6.4 330 / 61013.6 5.4 0.5 6.4 5.4 9.1
2016-Jul-24 14:00N 78°48' E 008°00'3 3.5 210 / 21013.9 6.3 5.6 8.7
2016-Jul-24 13:00N 78°48' E 008°18'0 0.0 210 / 61013.9 6.1 5.0 9.2
2016-Jul-24 12:00N 78°48' E 008°18'0 0.0 200 / 101014.0 5.4 0.5 6.1 4.6 8.7
2016-Jul-24 11:00N 78°48' E 008°18'6 6.1 200 / 101014.3 6.3 4.9 9.1
2016-Jul-24 10:00N 78°54' E 008°24'6 6.1 200 / 141014.3 6.4 4.4 9.1
2016-Jul-24 09:00N 79°00' E 008°30'5 4.6 200 / 161014.610.8 1.0 6.3 5.1 8.7
2016-Jul-24 08:00N 79°00' E 008°06'1 1.1 190 / 161014.5 6.1 5.2 9.1
2016-Jul-24 07:00N 79°00' E 008°00'1 1.1 200 / 171014.5 6.2 5.4 9.2
2016-Jul-24 06:00N 79°00' E 008°06'1 1.1 190 / 161015.1 5.4 0.5 6.4 5.9 9.2
2016-Jul-24 05:00N 79°00' E 008°00'0 0.0 190 / 161015.2 6.2 6.0 9.2
2016-Jul-24 04:00N 79°00' E 008°00'6 5.7 200 / 161015.7 6.2 5.6 9.2
2016-Jul-24 03:00N 79°00' E 007°30'0 0.0 190 / 161015.8 5.9 5.7 9.2
2016-Jul-24 02:00N 79°00' E 007°30'0 0.0 190 / 161016.3 6.0 5.7 9.2
2016-Jul-24 01:00N 79°00' E 007°30'0 0.0 190 / 161016.7 6.2 5.8 9.3
2016-Jul-24 00:00N 79°00' E 007°30'6 5.7 200 / 161016.7 6.1 5.7 9.2
2016-Jul-23 23:00N 79°00' E 007°00'6 5.7 200 / 141016.9 5.5 5.3 8.9
2016-Jul-23 22:00N 79°00' E 006°30'0 0.0 190 / 121017.1 5.5 5.5 7.4
2016-Jul-23 21:00N 79°00' E 006°30'9 9.2 190 / 121017.1 5.3 5.0 8.4
2016-Jul-23 20:00N 79°00' E 005°42'0 0.0 190 / 121017.0 4.9 4.7 8.5
2016-Jul-23 19:00N 79°00' E 005°42'0 0.0 180 / 121017.1 4.8 4.8 8.6
2016-Jul-23 18:00N 79°00' E 005°42'0 0.0 190 / 141017.2 5.1 4.7 8.6
2016-Jul-23 17:00N 79°00' E 005°42'1 1.1 190 / 121017.2 5.4 4.8 8.6
2016-Jul-23 16:00N 79°00' E 005°36'5 4.6 190 / 121017.3 5.2 4.4 8.6
2016-Jul-23 15:00N 79°00' E 006°00'1010.3 210 / 121017.5 5.4 0.5 5.0 4.4 8.7
2016-Jul-23 14:00N 79°00' E 006°54'1 1.1 190 / 101017.5 5.0 4.4 9.2
2016-Jul-23 13:00N 79°00' E 007°00'0 0.0 190 / 101017.9 5.5 3.7 8.7
2016-Jul-23 12:00N 79°00' E 007°00'0 0.0 210 / 61017.9 5.4 5.2 4.6 8.7
2016-Jul-23 11:00N 79°00' E 007°00'0 0.0 220 / 61017.8 5.3 4.1 8.8
2016-Jul-23 10:00N 79°00' E 007°00'1010.3 230 / 81017.9 5.3 4.1 9.0
2016-Jul-23 09:00N 79°00' E 007°54'1 1.1 170 / 61017.627.0 6.5 4.5 9.2
2016-Jul-23 08:00N 79°00' E 008°00'3 3.4 180 / 41017.6 6.5 3.6 9.1
2016-Jul-23 07:00N 79°00' E 008°18'0 0.0 180 / 81017.4 6.5 3.9 9.1
2016-Jul-23 06:00N 79°00' E 008°18'2 2.3 150 / 61017.327.0 6.4 4.6 9.1
2016-Jul-23 05:00N 79°00' E 008°06'2 2.3 140 / 61017.0 6.4 3.8 9.1
2016-Jul-23 04:00N 79°00' E 008°18'0 0.0 150 / 61017.1 6.0 4.2 9.1
2016-Jul-23 03:00N 79°00' E 008°18'0 0.0 160 / 61017.2 6.1 4.6 9.2
2016-Jul-23 02:00N 79°00' E 008°18'0 0.0 190 / 81017.4 5.9 4.5 9.2
2016-Jul-23 01:00N 79°00' E 008°18'0 0.0 150 / 81017.2 6.1 4.8 8.8
2016-Jul-23 00:00N 79°00' E 008°18'0 0.0 190 / 81017.5 5.5 4.7 8.9
2016-Jul-22 23:00N 79°00' E 008°18'0 0.0 180 / 81017.6 5.5 4.9 9.2
2016-Jul-22 22:00N 79°00' E 008°18'0 0.0 160 / 61017.4 5.9 4.5 8.6
2016-Jul-22 20:00N 79°00' E 008°18'0 0.0 160 / 81017.2 5.9 4.5 8.1
2016-Jul-22 19:00N 79°00' E 008°18'7 6.9 160 / 101017.0 6.1 4.4 9.2
2016-Jul-22 18:00N 78°54' E 008°36'6 6.1 170 / 61017.210.8 6.0 4.3 8.5
2016-Jul-22 17:00N 78°48' E 008°42'0 0.0 170 / 81017.1 5.9 4.1 8.4
2016-Jul-22 16:00N 78°48' E 008°42'1 1.2 180 / 61017.1 5.9 4.7 8.1
2016-Jul-22 15:00N 78°48' E 008°48'1413.9 210 / 61017.0 5.4 5.5 4.5 8.1
2016-Jul-22 14:00N 78°36' E 009°24'1514.6 190 / 101017.2 6.0 4.7 8.6
2016-Jul-22 13:00N 78°24' E 010°06'1414.0 200 / 81017.5 6.2 4.4 8.6
2016-Jul-22 12:00N 78°12' E 010°42'1514.8 220 / 101017.610.8 5.5 5.0 8.6
2016-Jul-22 11:00N 78°06' E 011°48'1514.8 200 / 101017.6 5.8 4.6 6.7
2016-Jul-22 10:00N 78°06' E 013°00'1514.8 180 / 121017.9 5.7 5.3 6.2
2016-Jul-22 09:00N 78°12' E 014°06'1514.7 240 / 161017.310.8 0.5 5.9 4.7 6.6
2016-Jul-22 08:00N 78°18' E 015°12'1 0.6 260 / 141017.4 6.1 5.1 7.1
2016-Jul-22 06:00N 78°18' E 015°06'9 8.6 270 / 141017.3 6.2 4.8 6.9
2016-Jul-22 05:00N 78°12' E 014°36'77 6.4 250 / 141017.2 6.9 4.6 6.4
2016-Jul-21 17:00N 77°30' E 009°30'3 2.6 270 / 141014.2 6.0 5.6 8.6
2016-Jul-21 16:00N 77°30' E 009°18'0 0.0 270 / 161013.6 6.1 5.3 8.5
2016-Jul-21 15:00N 77°30' E 009°18'0 0.0 260 / 161013.410.8 1.0 5.9 5.1 8.5
2016-Jul-21 14:00N 77°30' E 009°18'0 0.0 250 / 161013.0 5.9 5.3 8.4
2016-Jul-21 13:00N 77°30' E 009°18'0 0.0 260 / 171012.7 6.2 5.8 8.6
2016-Jul-21 12:00N 77°30' E 009°18'0 0.0 270 / 171012.3 5.4 1.0 6.4 5.8 8.7
2016-Jul-21 11:00N 77°30' E 009°18'0 0.0 260 / 171011.6 7.0 5.6 8.7
2016-Jul-21 10:00N 77°30' E 009°18'4 3.9 270 / 171011.1 7.4 6.0 8.4
2016-Jul-21 09:00N 77°30' E 009°00'10 9.9 260 / 161010.710.8 1.0 7.6 6.1 8.7
2016-Jul-21 08:00N 77°24' E 008°24'2412.0 260 / 171010.4 7.5 6.4 8.2
2016-Jul-21 06:00N 77°06' E 007°12'3 2.7 250 / 161010.210.8 1.0 7.3 6.2 8.4
2016-Jul-21 05:00N 77°06' E 007°24'8 8.1 260 / 191009.5 7.0 5.8 8.7
2016-Jul-21 04:00N 77°00' E 007°48'6 6.0 260 / 171009.5 6.3 6.1 8.7
2016-Jul-21 03:00N 76°54' E 007°48'1110.9 260 / 161009.7 5.7 5.7 8.6
2016-Jul-21 02:00N 76°54' E 007°00'7 6.6 260 / 171009.4 5.5 5.5 8.0
2016-Jul-21 01:00N 76°48' E 006°48'1212.0 270 / 161009.1 5.6 5.6 8.2
2016-Jul-21 00:00N 76°36' E 006°48'1212.1 280 / 171008.8 5.3 5.2 7.9
2016-Jul-20 23:00N 76°24' E 006°54'1212.0 280 / 171008.8 5.5 5.3 7.9
2016-Jul-20 22:00N 76°12' E 006°54'7 6.7 280 / 171008.6 5.8 5.6 8.0
2016-Jul-20 21:00N 76°06' E 007°06'9 9.4 270 / 191008.0 6.0 5.3 7.7
2016-Jul-20 20:00N 76°00' E 007°36'6 6.0 270 / 191007.7 5.8 4.6 7.7
2016-Jul-20 19:00N 75°54' E 007°36'1010.2 280 / 161007.9 5.6 5.1 7.9
2016-Jul-20 18:00N 75°54' E 006°54'6 6.0 290 / 161007.610.8 1.5 5.6 5.1 8.0
2016-Jul-20 17:00N 75°48' E 006°54'10 9.5 290 / 191006.7 6.1 5.4 7.9
2016-Jul-20 16:00N 75°42' E 007°24'6 5.9 290 / 191005.9 6.0 5.1 7.8
2016-Jul-20 15:00N 75°42' E 007°48'1212.4 290 / 211005.2 2.2 1.5 6.4 6.0 7.7
2016-Jul-20 14:00N 75°30' E 008°00'1312.8 300 / 191004.6 6.9 6.9 7.5
2016-Jul-20 13:00N 75°18' E 008°18'1212.4 280 / 211004.1 6.9 6.9 7.5
2016-Jul-20 12:00N 75°06' E 008°30'0 0.0 270 / 191004.1 5.4 1.5 6.9 6.3 7.6
2016-Jul-20 11:00N 75°06' E 008°30'2 1.5 270 / 211003.8 6.8 6.0 7.6
2016-Jul-20 10:00N 75°06' E 008°36'0 0.0 270 / 211003.2 6.7 6.2 7.7
2016-Jul-20 09:00N 75°06' E 008°36'0 0.0 280 / 191002.5 2.2 1.5 6.7 5.8 7.6
2016-Jul-20 08:00N 75°06' E 008°36'0 0.0 280 / 191001.9 6.8 6.6 7.6
2016-Jul-20 07:00N 75°06' E 008°36'8 7.6 280 / 191001.3 6.5 6.3 7.6
2016-Jul-20 06:00N 75°00' E 008°54'1312.9 280 / 211001.0 5.4 2.0 6.3 5.7 7.8
2016-Jul-20 05:00N 74°48' E 009°12'1312.9 270 / 251001.0 6.3 6.1 7.4
2016-Jul-20 04:00N 74°36' E 009°30'1312.9 270 / 251000.6 6.3 5.7 7.9
2016-Jul-20 03:00N 74°24' E 009°48'1313.0 260 / 271000.8 6.1 5.5 7.8
2016-Jul-20 02:00N 74°12' E 010°06'1413.7 260 / 251001.6 6.9 5.8 7.8
2016-Jul-20 01:00N 74°00' E 010°30'1313.0 250 / 231002.2 7.1 6.5 8.0
2016-Jul-20 00:00N 73°48' E 010°48'1313.0 260 / 231002.7 7.3 7.0 7.9
2016-Jul-19 23:00N 73°36' E 011°06'1313.0 250 / 191003.2 7.5 7.1 7.8
2016-Jul-19 22:00N 73°24' E 011°24'1313.1 250 / 191003.3 7.6 7.0 8.3
2016-Jul-19 21:00N 73°12' E 011°42'1313.1 240 / 211003.8 7.6 6.6 8.4
2016-Jul-19 20:00N 73°00' E 012°00'1313.1 250 / 231004.6 7.6 6.2 9.6
2016-Jul-19 19:00N 72°48' E 012°18'1313.1 250 / 251004.7 7.6 6.0 9.3
2016-Jul-19 18:00N 72°36' E 012°36'1414.0 250 / 231005.3 5.4 1.5 7.4 5.9 9.1
2016-Jul-19 17:00N 72°24' E 013°00'1313.2 240 / 231006.2 7.5 5.9 9.1
2016-Jul-19 16:00N 72°12' E 013°18'1312.6 240 / 191006.7 7.8 5.3 9.2
2016-Jul-19 15:00N 72°00' E 013°30'1414.1 240 / 211007.310.8 1.5 8.1 5.0 9.5
2016-Jul-19 14:00N 71°48' E 013°54'1312.6 260 / 191007.6 7.5 5.5 8.9
2016-Jul-19 13:00N 71°36' E 014°06'1313.3 260 / 191007.4 8.2 5.2 9.0
2016-Jul-19 12:00N 71°24' E 014°24'1414.3 190 / 101007.610.8 0.5 8.6 8.1 8.7
2016-Jul-19 11:00N 71°12' E 014°48'1313.3 200 / 161008.1 8.8 8.0 8.9
2016-Jul-19 10:00N 71°00' E 015°06'8 7.8 210 / 191008.5 9.2 7.9 9.3
2016-Jul-19 09:00N 71°00' E 015°30'0 0.0 210 / 191009.2 9.0 7.6 9.6
2016-Jul-19 08:00N 71°00' E 015°30'0 0.0 210 / 191009.2 9.1 7.6 9.6
2016-Jul-19 07:00N 71°00' E 015°30'   220 / 171009.2 9.0 7.3 9.6
Track history (hours):
 
Tides and Currents Weather Stations Pressure Air Temp Water Temp Dewpoint Dewpoint Depression Visibility Wind Speed Wind Dir Waves Ship Positions

Oceanographic research ship Polarstern (Germany)

Detailed information on ship capabilities available from University of Delaware's Ocean Information Center and ARCUS's ALIAS (Arctic Logistics Information and Support) project.

Last reported at 2016-Jul-29 07:00 UTC. Time now 2016-Jul-29 07:47 UTC.
Position N 79°30' E 000°06'.

Length 117.9 m; beam 25 m; draft 10.7 m.

MMSI: 211202460.

Wind from 320 at 16 knots

Barometer 1020.5 mb
Air temperature -0.5 ° C
Dewpoint -0.5 ° C
Water temperature -0.6 ° C

Date/timePositionNaut miles runAvg speedWind from/ knotsBaromVisibWave heightAir tempDewpointWater temp
2016-Jul-29 07:00N 79°30' E 000°06'0 0.0 320 / 161020.5 -0.5-0.5-0.6
2016-Jul-29 06:00N 79°30' E 000°06'0 0.0 310 / 161020.5 0.1 -0.4-0.4 0.6
2016-Jul-29 04:00N 79°30' E 000°06'0 0.0 330 / 171020.9 -0.6-0.6 3.4
2016-Jul-29 03:00N 79°30' E 000°06'0 0.0 330 / 191020.8 -0.1-0.2 3.9
2016-Jul-29 02:00N 79°30' E 000°06'0 0.0 310 / 161020.9 0.1-0.3 3.1
2016-Jul-29 01:00N 79°30' E 000°06'0 0.0 320 / 141021.1 0.1-0.4 3.4
2016-Jul-29 00:00N 79°30' E 000°06'1 1.1 320 / 141021.2 0.2-0.3 3.1
2016-Jul-28 23:00N 79°30' E 000°00'0 0.0 330 / 121020.9 0.1-0.4 3.4
2016-Jul-28 22:00N 79°30' E 000°00'0 0.0 340 / 141020.9 0.1-0.2 3.6
2016-Jul-28 21:00N 79°30' E 000°00'6 6.4 340 / 141020.5 0.1-0.1 1.9
2016-Jul-28 20:00N 79°24' E 000°12'1212.5 340 / 161019.8 0.2-0.2 1.9
2016-Jul-28 19:00N 79°12' E 000°30'1212.5 340 / 161019.5 -1.0-1.0 1.6
2016-Jul-28 18:00N 79°00' E 000°48'1212.5 340 / 161018.510.8 0.5-0.3-0.9 3.8
2016-Jul-28 17:00N 78°48' E 001°06'0 0.0 360 / 101018.5 0.6-0.3 3.6
2016-Jul-28 16:00N 78°48' E 001°06'0 0.0 340 / 81018.8 0.1-0.0 4.3
2016-Jul-28 15:00N 78°48' E 001°06'0 0.0 300 / 61018.9 2.2 0.5 0.5-0.1 4.0
2016-Jul-28 14:00N 78°48' E 001°06'0 0.0 270 / 101018.5 1.6 0.5 3.7
2016-Jul-28 13:00N 78°48' E 001°06'0 0.0 250 / 121018.4 1.7 1.0 3.7
2016-Jul-28 12:00N 78°48' E 001°06'0 0.0 260 / 121018.6 2.2 0.5 1.6 1.6 3.4
2016-Jul-28 11:00N 78°48' E 001°06'0 0.0 260 / 141018.7 2.5 1.7 4.8
2016-Jul-28 10:00N 78°48' E 001°06'0 0.0 220 / 191018.4 3.3 2.2 3.5
2016-Jul-28 09:00N 78°48' E 001°06'0 0.0 240 / 121018.2 2.2 0.5 2.7 2.6 3.5
2016-Jul-28 08:00N 78°48' E 001°06'0 0.0 220 / 191018.1 3.6 2.8 3.5
2016-Jul-28 07:00N 78°48' E 001°06'0 0.0 220 / 211017.6 3.8 3.1 3.6
2016-Jul-28 06:00N 78°48' E 001°06'1312.9 220 / 231017.6 5.4 1.5 3.8 2.9 4.5
2016-Jul-28 05:00N 79°00' E 000°42'8 7.5 230 / 211017.7 3.1 2.8 4.4
2016-Jul-28 04:00N 79°06' E 000°18'7 6.9 220 / 191017.5 2.6 2.3 1.9
2016-Jul-28 03:00N 79°12' E 000°00'0 0.0 210 / 211017.9 2.3 2.2 0.7
2016-Jul-28 02:00N 79°12' E 000°00'0 0.0 200 / 231018.2 2.6 2.2 2.2
2016-Jul-28 01:00N 79°12' E 000°00'1212.5 200 / 211018.1 2.7 2.1 0.9
2016-Jul-28 00:00N 79°00' W 000°18'8 7.6 200 / 231018.7 3.0 2.6 1.7
2016-Jul-27 23:00N 78°54' W 000°42'6 6.4 190 / 231019.1 3.3 2.7 2.7
2016-Jul-27 22:00N 78°48' W 000°54'0 0.0 190 / 231019.0 3.3 2.4 3.4
2016-Jul-27 21:00N 78°48' W 000°54'0 0.0 200 / 231019.1 3.4 2.2 3.7
2016-Jul-27 20:00N 78°48' W 000°54'0 0.0 200 / 231019.0 3.6 2.1 3.5
2016-Jul-27 19:00N 78°48' W 000°54'1 1.2 200 / 251019.1 3.7 2.2 3.4
2016-Jul-27 18:00N 78°48' W 000°48'0 0.0 200 / 231019.410.8 0.5 3.2 1.6 3.3
2016-Jul-27 17:00N 78°48' W 000°48'6 6.0 200 / 191020.0 3.4 2.3 3.5
2016-Jul-27 16:00N 78°54' W 000°48'0 0.0 200 / 211020.0 3.8 2.5 3.8
2016-Jul-27 15:00N 78°54' W 000°48'1111.1 200 / 231020.210.8 0.5 3.8 2.4 3.7
2016-Jul-27 14:00N 78°48' E 000°00'0 0.0 200 / 231020.3 4.9 2.9 2.6
2016-Jul-27 13:00N 78°48' E 000°00'0 0.0 210 / 211021.0 4.7 2.9 3.0
2016-Jul-27 12:00N 78°48' E 000°00'0 0.0 210 / 211021.210.8 1.5 4.6 2.8 2.8
2016-Jul-27 11:00N 78°48' E 000°00'0 0.0 210 / 211021.4 4.5 3.0 2.5
2016-Jul-27 10:00N 78°48' E 000°00'0 0.0 210 / 211021.8 4.7 2.9 3.1
2016-Jul-27 09:00N 78°48' E 000°00'0 0.0 210 / 191021.810.8 1.5 4.6 2.7 3.4
2016-Jul-27 08:00N 78°48' E 000°00'9 9.3 210 / 211021.8 4.5 2.2 0.7
2016-Jul-27 07:00N 78°48' E 000°48'1211.7 220 / 231021.7 4.9 2.6 4.6
2016-Jul-27 06:00N 78°48' E 001°48'5 4.7 220 / 211022.310.8 1.0 4.6 2.9 5.1
2016-Jul-27 05:00N 78°48' E 002°12'0 0.0 230 / 211022.9 4.8 3.2 7.5
2016-Jul-27 04:00N 78°48' E 002°12'0 0.0 230 / 191023.0 4.6 2.9 7.6
2016-Jul-27 03:00N 78°48' E 002°12'9 9.3 230 / 171023.4 4.6 3.6 7.6
2016-Jul-27 02:00N 78°48' E 003°00'6 5.8 230 / 191023.2 5.2 3.8 7.7
2016-Jul-27 01:00N 78°48' E 003°30'0 0.0 220 / 161023.9 5.1 3.8 7.8
2016-Jul-27 00:00N 78°48' E 003°30'0 0.0 230 / 161024.2 4.8 3.5 7.8
2016-Jul-26 23:00N 78°48' E 003°30'0 0.0 230 / 161024.2 5.1 3.6 7.8
2016-Jul-26 22:00N 78°48' E 003°30'0 0.0 230 / 161024.2 5.1 3.0 7.9
2016-Jul-26 21:00N 78°48' E 003°30'0 0.0 240 / 141023.9 4.8 3.5 7.9
2016-Jul-26 20:00N 78°48' E 003°30'0 0.0 230 / 141023.9 4.9 3.4 7.9
2016-Jul-26 19:00N 78°48' E 003°30'0 0.0 220 / 141023.8 4.8 3.4 7.9
2016-Jul-26 18:00N 78°48' E 003°30'0 0.0 240 / 141023.7 5.4 0.5 4.9 3.1 7.9
2016-Jul-26 17:00N 78°48' E 003°30'0 0.0 230 / 141023.8 4.5 2.7 7.9
2016-Jul-26 16:00N 78°48' E 003°30'1 1.2 240 / 141023.8 4.7 2.7 7.9
2016-Jul-26 15:00N 78°48' E 003°36'9 9.3 240 / 141023.610.8 1.0 4.6 2.9 7.9
2016-Jul-26 14:00N 78°48' E 004°24'8 8.2 240 / 141023.8 5.1 3.2 5.0
2016-Jul-26 13:00N 78°48' E 005°06'1 1.2 240 / 121024.1 4.9 3.5 7.7
2016-Jul-26 12:00N 78°48' E 005°00'0 0.0 230 / 121024.210.8 0.5 4.7 3.3 7.5
2016-Jul-26 11:00N 78°48' E 005°00'0 0.0 240 / 121024.1 4.0 3.4 7.6
2016-Jul-26 10:00N 78°48' E 005°00'0 0.0 230 / 121023.7 4.2 3.5 7.8
2016-Jul-26 09:00N 78°48' E 005°00'0 0.0 220 / 121023.710.8 0.5 4.7 3.2 7.8
2016-Jul-26 08:00N 78°48' E 005°00'0 0.0 240 / 101023.3 4.8 4.1 7.4
2016-Jul-26 07:00N 78°48' E 005°00'0 0.0 250 / 101023.2 4.7 4.0 7.4
2016-Jul-26 06:00N 78°48' E 005°00'8 8.2 250 / 121023.010.8 0.5 4.9 3.7 7.9
2016-Jul-26 05:00N 78°48' E 004°18'0 0.0 250 / 121023.0 4.9 3.5 4.7
2016-Jul-26 04:00N 78°48' E 004°18'0 0.0 240 / 121023.0 5.2 3.8 7.0
2016-Jul-26 03:00N 78°48' E 004°18'1 1.2 250 / 121023.1 6.0 4.4 6.6
2016-Jul-26 02:00N 78°48' E 004°24'1212.0 250 / 101023.0 5.9 4.5 4.3
2016-Jul-26 01:00N 78°54' E 005°18'0 0.0 270 / 101022.9 6.0 3.3 8.5
2016-Jul-26 00:00N 78°54' E 005°18'0 0.0 280 / 121023.1 6.2 3.2 8.5
2016-Jul-25 23:00N 78°54' E 005°18'2 2.3 280 / 141022.8 6.3 2.7 8.5
2016-Jul-25 22:00N 78°54' E 005°06'6 6.1 280 / 121022.9 6.3 3.6 8.3
2016-Jul-25 21:00N 78°48' E 005°00'0 0.0 280 / 101022.8 6.0 3.8 7.3
2016-Jul-25 20:00N 78°48' E 005°00'0 0.0 280 / 121022.7 6.0 4.1 7.3
2016-Jul-25 19:00N 78°48' E 005°00'0 0.0 280 / 121022.3 6.0 3.6 7.4
2016-Jul-25 18:00N 78°48' E 005°00'0 0.0 290 / 101022.427.0 0.5 5.9 3.4 7.5
2016-Jul-25 17:00N 78°48' E 005°00'3 3.5 300 / 121022.3 5.8 3.0 7.4
2016-Jul-25 16:00N 78°48' E 004°42'0 0.0 300 / 121022.1 5.6 3.0 6.0
2016-Jul-25 15:00N 78°48' E 004°42'6 5.8 310 / 121022.327.0 0.5 5.1 3.2 5.6
2016-Jul-25 14:00N 78°48' E 005°12'7 7.0 310 / 171021.7 5.8 2.5 7.8
2016-Jul-25 13:00N 78°42' E 005°30'0 0.0 310 / 161021.8 5.8 3.9 8.0
2016-Jul-25 12:00N 78°42' E 005°30'6 6.4 310 / 161021.627.0 1.0 5.3 3.8 8.0
2016-Jul-25 11:00N 78°48' E 005°42'3 3.5 310 / 161021.3 5.8 4.1 8.1
2016-Jul-25 10:00N 78°48' E 006°00'0 0.0 310 / 141021.2 5.7 2.9 8.0
2016-Jul-25 09:00N 78°48' E 006°00'3 3.5 320 / 141020.927.0 0.5 5.7 3.3 8.1
2016-Jul-25 08:00N 78°48' E 006°18'8 8.2 320 / 161020.6 5.3 3.4 8.5
2016-Jul-25 07:00N 78°48' E 007°00'1 1.2 320 / 161020.0 4.8 2.9 8.1
2016-Jul-25 06:00N 78°48' E 007°06'1212.1 330 / 141019.927.0 0.5 4.4 3.1 8.2
2016-Jul-25 05:00N 79°00' E 007°00'0 0.0 330 / 141019.7 4.1 2.9 8.8
2016-Jul-25 04:00N 79°00' E 007°00'0 0.0 330 / 141019.4 3.2 2.3 8.8
2016-Jul-25 03:00N 79°00' E 007°00'0 0.0 340 / 161019.3 3.1 2.7 8.9
2016-Jul-25 02:00N 79°00' E 007°00'0 0.0 340 / 171019.1 3.4 2.1 8.9
2016-Jul-25 01:00N 79°00' E 007°00'0 0.0 340 / 171018.8 2.8 2.1 8.9
2016-Jul-25 00:00N 79°00' E 007°00'0 0.0 350 / 211018.4 3.9 2.1 8.8
2016-Jul-24 23:00N 79°00' E 007°00'0 0.0 360 / 231018.1 4.2 2.6 8.8
2016-Jul-24 22:00N 79°00' E 007°00'0 0.0 350 / 231017.8 3.7 2.6 8.8
2016-Jul-24 21:00N 79°00' E 007°00'0 0.0 350 / 271017.1 4.4 3.3 8.8
2016-Jul-24 20:00N 79°00' E 007°00'0 0.0 360 / 271016.5 4.6 3.7 8.8
2016-Jul-24 19:00N 79°00' E 007°00'8 8.0 350 / 251015.8 4.6 4.4 8.8
2016-Jul-24 18:00N 79°00' E 007°42'9 9.2 350 / 191014.7 5.4 1.0 6.1 5.8 8.9
2016-Jul-24 17:00N 79°00' E 008°30'0 0.0 360 / 121014.3 6.2 5.3 8.0
2016-Jul-24 16:00N 79°00' E 008°30'7 6.9 350 / 61014.0 6.0 5.4 8.3
2016-Jul-24 15:00N 78°54' E 008°12'6 6.4 330 / 61013.6 5.4 0.5 6.4 5.4 9.1
2016-Jul-24 14:00N 78°48' E 008°00'3 3.5 210 / 21013.9 6.3 5.6 8.7
2016-Jul-24 13:00N 78°48' E 008°18'0 0.0 210 / 61013.9 6.1 5.0 9.2
2016-Jul-24 12:00N 78°48' E 008°18'0 0.0 200 / 101014.0 5.4 0.5 6.1 4.6 8.7
2016-Jul-24 11:00N 78°48' E 008°18'6 6.1 200 / 101014.3 6.3 4.9 9.1
2016-Jul-24 10:00N 78°54' E 008°24'6 6.1 200 / 141014.3 6.4 4.4 9.1
2016-Jul-24 09:00N 79°00' E 008°30'5 4.6 200 / 161014.610.8 1.0 6.3 5.1 8.7
2016-Jul-24 08:00N 79°00' E 008°06'1 1.1 190 / 161014.5 6.1 5.2 9.1
2016-Jul-24 07:00N 79°00' E 008°00'1 1.1 200 / 171014.5 6.2 5.4 9.2
2016-Jul-24 06:00N 79°00' E 008°06'1 1.1 190 / 161015.1 5.4 0.5 6.4 5.9 9.2
2016-Jul-24 05:00N 79°00' E 008°00'0 0.0 190 / 161015.2 6.2 6.0 9.2
2016-Jul-24 04:00N 79°00' E 008°00'6 5.7 200 / 161015.7 6.2 5.6 9.2
2016-Jul-24 03:00N 79°00' E 007°30'0 0.0 190 / 161015.8 5.9 5.7 9.2
2016-Jul-24 02:00N 79°00' E 007°30'0 0.0 190 / 161016.3 6.0 5.7 9.2
2016-Jul-24 01:00N 79°00' E 007°30'0 0.0 190 / 161016.7 6.2 5.8 9.3
2016-Jul-24 00:00N 79°00' E 007°30'6 5.7 200 / 161016.7 6.1 5.7 9.2
2016-Jul-23 23:00N 79°00' E 007°00'6 5.7 200 / 141016.9 5.5 5.3 8.9
2016-Jul-23 22:00N 79°00' E 006°30'0 0.0 190 / 121017.1 5.5 5.5 7.4
2016-Jul-23 21:00N 79°00' E 006°30'9 9.2 190 / 121017.1 5.3 5.0 8.4
2016-Jul-23 20:00N 79°00' E 005°42'0 0.0 190 / 121017.0 4.9 4.7 8.5
2016-Jul-23 19:00N 79°00' E 005°42'0 0.0 180 / 121017.1 4.8 4.8 8.6
2016-Jul-23 18:00N 79°00' E 005°42'0 0.0 190 / 141017.2 5.1 4.7 8.6
2016-Jul-23 17:00N 79°00' E 005°42'1 1.1 190 / 121017.2 5.4 4.8 8.6
2016-Jul-23 16:00N 79°00' E 005°36'5 4.6 190 / 121017.3 5.2 4.4 8.6
2016-Jul-23 15:00N 79°00' E 006°00'1010.3 210 / 121017.5 5.4 0.5 5.0 4.4 8.7
2016-Jul-23 14:00N 79°00' E 006°54'1 1.1 190 / 101017.5 5.0 4.4 9.2
2016-Jul-23 13:00N 79°00' E 007°00'0 0.0 190 / 101017.9 5.5 3.7 8.7
2016-Jul-23 12:00N 79°00' E 007°00'0 0.0 210 / 61017.9 5.4 5.2 4.6 8.7
2016-Jul-23 11:00N 79°00' E 007°00'0 0.0 220 / 61017.8 5.3 4.1 8.8
2016-Jul-23 10:00N 79°00' E 007°00'1010.3 230 / 81017.9 5.3 4.1 9.0
2016-Jul-23 09:00N 79°00' E 007°54'1 1.1 170 / 61017.627.0 6.5 4.5 9.2
2016-Jul-23 08:00N 79°00' E 008°00'3 3.4 180 / 41017.6 6.5 3.6 9.1
2016-Jul-23 07:00N 79°00' E 008°18'0 0.0 180 / 81017.4 6.5 3.9 9.1
2016-Jul-23 06:00N 79°00' E 008°18'2 2.3 150 / 61017.327.0 6.4 4.6 9.1
2016-Jul-23 05:00N 79°00' E 008°06'2 2.3 140 / 61017.0 6.4 3.8 9.1
2016-Jul-23 04:00N 79°00' E 008°18'0 0.0 150 / 61017.1 6.0 4.2 9.1
2016-Jul-23 03:00N 79°00' E 008°18'0 0.0 160 / 61017.2 6.1 4.6 9.2
2016-Jul-23 02:00N 79°00' E 008°18'0 0.0 190 / 81017.4 5.9 4.5 9.2
2016-Jul-23 01:00N 79°00' E 008°18'0 0.0 150 / 81017.2 6.1 4.8 8.8
2016-Jul-23 00:00N 79°00' E 008°18'0 0.0 190 / 81017.5 5.5 4.7 8.9
2016-Jul-22 23:00N 79°00' E 008°18'0 0.0 180 / 81017.6 5.5 4.9 9.2
2016-Jul-22 22:00N 79°00' E 008°18'0 0.0 160 / 61017.4 5.9 4.5 8.6
2016-Jul-22 20:00N 79°00' E 008°18'0 0.0 160 / 81017.2 5.9 4.5 8.1
2016-Jul-22 19:00N 79°00' E 008°18'7 6.9 160 / 101017.0 6.1 4.4 9.2
2016-Jul-22 18:00N 78°54' E 008°36'6 6.1 170 / 61017.210.8 6.0 4.3 8.5
2016-Jul-22 17:00N 78°48' E 008°42'0 0.0 170 / 81017.1 5.9 4.1 8.4
2016-Jul-22 16:00N 78°48' E 008°42'1 1.2 180 / 61017.1 5.9 4.7 8.1
2016-Jul-22 15:00N 78°48' E 008°48'1413.9 210 / 61017.0 5.4 5.5 4.5 8.1
2016-Jul-22 14:00N 78°36' E 009°24'1514.6 190 / 101017.2 6.0 4.7 8.6
2016-Jul-22 13:00N 78°24' E 010°06'1414.0 200 / 81017.5 6.2 4.4 8.6
2016-Jul-22 12:00N 78°12' E 010°42'1514.8 220 / 101017.610.8 5.5 5.0 8.6
2016-Jul-22 11:00N 78°06' E 011°48'1514.8 200 / 101017.6 5.8 4.6 6.7
2016-Jul-22 10:00N 78°06' E 013°00'1514.8 180 / 121017.9 5.7 5.3 6.2
2016-Jul-22 09:00N 78°12' E 014°06'1514.7 240 / 161017.310.8 0.5 5.9 4.7 6.6
2016-Jul-22 08:00N 78°18' E 015°12'1 0.6 260 / 141017.4 6.1 5.1 7.1
2016-Jul-22 06:00N 78°18' E 015°06'9 8.6 270 / 141017.3 6.2 4.8 6.9
2016-Jul-22 05:00N 78°12' E 014°36'77 6.4 250 / 141017.2 6.9 4.6 6.4
2016-Jul-21 17:00N 77°30' E 009°30'3 2.6 270 / 141014.2 6.0 5.6 8.6
2016-Jul-21 16:00N 77°30' E 009°18'0 0.0 270 / 161013.6 6.1 5.3 8.5
2016-Jul-21 15:00N 77°30' E 009°18'0 0.0 260 / 161013.410.8 1.0 5.9 5.1 8.5
2016-Jul-21 14:00N 77°30' E 009°18'0 0.0 250 / 161013.0 5.9 5.3 8.4
2016-Jul-21 13:00N 77°30' E 009°18'0 0.0 260 / 171012.7 6.2 5.8 8.6
2016-Jul-21 12:00N 77°30' E 009°18'0 0.0 270 / 171012.3 5.4 1.0 6.4 5.8 8.7
2016-Jul-21 11:00N 77°30' E 009°18'0 0.0 260 / 171011.6 7.0 5.6 8.7
2016-Jul-21 10:00N 77°30' E 009°18'4 3.9 270 / 171011.1 7.4 6.0 8.4
2016-Jul-21 09:00N 77°30' E 009°00'10 9.9 260 / 161010.710.8 1.0 7.6 6.1 8.7
2016-Jul-21 08:00N 77°24' E 008°24'2412.0 260 / 171010.4 7.5 6.4 8.2
2016-Jul-21 06:00N 77°06' E 007°12'3 2.7 250 / 161010.210.8 1.0 7.3 6.2 8.4
2016-Jul-21 05:00N 77°06' E 007°24'8 8.1 260 / 191009.5 7.0 5.8 8.7
2016-Jul-21 04:00N 77°00' E 007°48'6 6.0 260 / 171009.5 6.3 6.1 8.7
2016-Jul-21 03:00N 76°54' E 007°48'1110.9 260 / 161009.7 5.7 5.7 8.6
2016-Jul-21 02:00N 76°54' E 007°00'7 6.6 260 / 171009.4 5.5 5.5 8.0
2016-Jul-21 01:00N 76°48' E 006°48'1212.0 270 / 161009.1 5.6 5.6 8.2
2016-Jul-21 00:00N 76°36' E 006°48'1212.1 280 / 171008.8 5.3 5.2 7.9
2016-Jul-20 23:00N 76°24' E 006°54'1212.0 280 / 171008.8 5.5 5.3 7.9
2016-Jul-20 22:00N 76°12' E 006°54'7 6.7 280 / 171008.6 5.8 5.6 8.0
2016-Jul-20 21:00N 76°06' E 007°06'9 9.4 270 / 191008.0 6.0 5.3 7.7
2016-Jul-20 20:00N 76°00' E 007°36'6 6.0 270 / 191007.7 5.8 4.6 7.7
2016-Jul-20 19:00N 75°54' E 007°36'1010.2 280 / 161007.9 5.6 5.1 7.9
2016-Jul-20 18:00N 75°54' E 006°54'6 6.0 290 / 161007.610.8 1.5 5.6 5.1 8.0
2016-Jul-20 17:00N 75°48' E 006°54'10 9.5 290 / 191006.7 6.1 5.4 7.9
2016-Jul-20 16:00N 75°42' E 007°24'6 5.9 290 / 191005.9 6.0 5.1 7.8
2016-Jul-20 15:00N 75°42' E 007°48'1212.4 290 / 211005.2 2.2 1.5 6.4 6.0 7.7
2016-Jul-20 14:00N 75°30' E 008°00'1312.8 300 / 191004.6 6.9 6.9 7.5
2016-Jul-20 13:00N 75°18' E 008°18'1212.4 280 / 211004.1 6.9 6.9 7.5
2016-Jul-20 12:00N 75°06' E 008°30'0 0.0 270 / 191004.1 5.4 1.5 6.9 6.3 7.6
2016-Jul-20 11:00N 75°06' E 008°30'2 1.5 270 / 211003.8 6.8 6.0 7.6
2016-Jul-20 10:00N 75°06' E 008°36'0 0.0 270 / 211003.2 6.7 6.2 7.7
2016-Jul-20 09:00N 75°06' E 008°36'0 0.0 280 / 191002.5 2.2 1.5 6.7 5.8 7.6
2016-Jul-20 08:00N 75°06' E 008°36'0 0.0 280 / 191001.9 6.8 6.6 7.6
2016-Jul-20 07:00N 75°06' E 008°36'8 7.6 280 / 191001.3 6.5 6.3 7.6
2016-Jul-20 06:00N 75°00' E 008°54'1312.9 280 / 211001.0 5.4 2.0 6.3 5.7 7.8
2016-Jul-20 05:00N 74°48' E 009°12'1312.9 270 / 251001.0 6.3 6.1 7.4
2016-Jul-20 04:00N 74°36' E 009°30'1312.9 270 / 251000.6 6.3 5.7 7.9
2016-Jul-20 03:00N 74°24' E 009°48'1313.0 260 / 271000.8 6.1 5.5 7.8
2016-Jul-20 02:00N 74°12' E 010°06'1413.7 260 / 251001.6 6.9 5.8 7.8
2016-Jul-20 01:00N 74°00' E 010°30'1313.0 250 / 231002.2 7.1 6.5 8.0
2016-Jul-20 00:00N 73°48' E 010°48'1313.0 260 / 231002.7 7.3 7.0 7.9
2016-Jul-19 23:00N 73°36' E 011°06'1313.0 250 / 191003.2 7.5 7.1 7.8
2016-Jul-19 22:00N 73°24' E 011°24'1313.1 250 / 191003.3 7.6 7.0 8.3
2016-Jul-19 21:00N 73°12' E 011°42'1313.1 240 / 211003.8 7.6 6.6 8.4
2016-Jul-19 20:00N 73°00' E 012°00'1313.1 250 / 231004.6 7.6 6.2 9.6
2016-Jul-19 19:00N 72°48' E 012°18'1313.1 250 / 251004.7 7.6 6.0 9.3
2016-Jul-19 18:00N 72°36' E 012°36'1414.0 250 / 231005.3 5.4 1.5 7.4 5.9 9.1
2016-Jul-19 17:00N 72°24' E 013°00'1313.2 240 / 231006.2 7.5 5.9 9.1
2016-Jul-19 16:00N 72°12' E 013°18'1312.6 240 / 191006.7 7.8 5.3 9.2
2016-Jul-19 15:00N 72°00' E 013°30'1414.1 240 / 211007.310.8 1.5 8.1 5.0 9.5
2016-Jul-19 14:00N 71°48' E 013°54'1312.6 260 / 191007.6 7.5 5.5 8.9
2016-Jul-19 13:00N 71°36' E 014°06'1313.3 260 / 191007.4 8.2 5.2 9.0
2016-Jul-19 12:00N 71°24' E 014°24'1414.3 190 / 101007.610.8 0.5 8.6 8.1 8.7
2016-Jul-19 11:00N 71°12' E 014°48'1313.3 200 / 161008.1 8.8 8.0 8.9
2016-Jul-19 10:00N 71°00' E 015°06'8 7.8 210 / 191008.5 9.2 7.9 9.3
2016-Jul-19 09:00N 71°00' E 015°30'0 0.0 210 / 191009.2 9.0 7.6 9.6
2016-Jul-19 08:00N 71°00' E 015°30'0 0.0 210 / 191009.2 9.1 7.6 9.6
2016-Jul-19 07:00N 71°00' E 015°30'   220 / 171009.2 9.0 7.3 9.6

Dump ship's entire track history